Time;durP1;ratioP1;P1;durP2;ratioP2;P2;SDS_P1;SDS_P2;PMS_P1;PMS_P2;Temp;Humidity;BMP_temperature;BMP_pressure;BME280_temperature;BME280_humidity;BME280_pressure;Samples;Min_cycle;Max_cycle;Signal;HPM_P1;HPM_P2
2023/05/30 00:02:02;;;;;;;10.15;3.17;;;;;;;;;;5117854;28;20016;-73
2023/05/30 00:04:30;;;;;;;6.28;2.85;;;;;;;;;;5117902;28;20051;-74
2023/05/30 00:06:59;;;;;;;6.78;3.13;;;;;;;;;;5117830;28;20030;-73
2023/05/30 00:09:26;;;;;;;8.68;3.80;;;;;;;;;;5117500;28;20027;-74
2023/05/30 00:11:54;;;;;;;6.28;3.53;;;;;;;;;;5099435;28;20035;-73
2023/05/30 00:14:21;;;;;;;6.03;3.10;;;;;;;;;;5117353;28;20525;-73
2023/05/30 00:16:47;;;;;;;7.82;3.33;;;;;;;;;;5117458;28;20520;-72
2023/05/30 00:19:14;;;;;;;9.50;3.45;;;;;;;;;;5116615;28;20097;-73
2023/05/30 00:21:42;;;;;;;6.53;3.08;;;;;;;;;;5117136;28;20418;-73
2023/05/30 00:24:07;;;;;;;12.98;2.97;;;;;;;;;;5116535;28;20024;-73
2023/05/30 00:26:33;;;;;;;9.23;3.17;;;;;;;;;;5116244;28;20035;-73
2023/05/30 00:28:58;;;;;;;7.70;3.30;;;;;;;;;;5116604;28;20031;-73
2023/05/30 00:31:23;;;;;;;6.67;3.67;;;;;;;;;;5116211;28;20473;-73
2023/05/30 00:33:49;;;;;;;10.35;3.20;;;;;;;;;;5116069;28;20277;-72
2023/05/30 00:36:14;;;;;;;7.97;4.00;;;;;;;;;;5097502;28;20369;-72
2023/05/30 00:38:40;;;;;;;10.63;3.17;;;;;;;;;;5115700;28;20023;-72
2023/05/30 00:41:05;;;;;;;11.52;3.50;;;;;;;;;;5097467;28;20043;-72
2023/05/30 00:43:30;;;;;;;10.90;3.80;;;;;;;;;;5115602;28;20055;-72
2023/05/30 00:45:56;;;;;;;9.88;4.03;;;;;;;;;;5115996;28;20269;-72
2023/05/30 00:48:22;;;;;;;7.32;3.35;;;;;;;;;;5115888;28;20380;-73
2023/05/30 00:50:48;;;;;;;8.57;2.90;;;;;;;;;;5115571;28;20373;-74
2023/05/30 00:53:14;;;;;;;12.15;3.75;;;;;;;;;;5115960;28;20023;-73
2023/05/30 00:55:41;;;;;;;7.65;3.08;;;;;;;;;;5115541;28;20066;-72
2023/05/30 00:58:06;;;;;;;8.88;3.45;;;;;;;;;;5115638;28;20471;-73
2023/05/30 01:00:37;;;;;;;11.90;3.53;;;;;;;;;;5116365;28;20085;-72
2023/05/30 01:03:04;;;;;;;8.23;3.90;;;;;;;;;;5117077;28;20015;-73
2023/05/30 01:05:31;;;;;;;7.55;3.03;;;;;;;;;;5116349;28;20107;-72
2023/05/30 01:07:58;;;;;;;6.35;3.53;;;;;;;;;;5116786;28;20024;-73
2023/05/30 01:10:29;;;;;;;7.97;3.30;;;;;;;;;;5098042;28;20031;-73
2023/05/30 01:13:12;;;;;;;6.30;3.13;;;;;;;;;;5116371;28;20091;-73
2023/05/30 01:15:45;;;;;;;9.50;3.22;;;;;;;;;;5116678;28;20026;-74
2023/05/30 01:18:14;;;;;;;4.30;2.97;;;;;;;;;;5098102;28;20357;-72
2023/05/30 01:20:56;;;;;;;11.30;3.15;;;;;;;;;;5116296;28;20026;-73
2023/05/30 01:23:24;;;;;;;9.97;2.97;;;;;;;;;;5116049;28;20024;-74
2023/05/30 01:25:57;;;;;;;6.70;2.97;;;;;;;;;;5116508;28;20321;-73
2023/05/30 01:28:24;;;;;;;10.68;3.80;;;;;;;;;;5116394;28;20075;-73
2023/05/30 01:30:52;;;;;;;8.68;3.10;;;;;;;;;;5116248;28;20020;-73
2023/05/30 01:33:22;;;;;;;6.18;2.88;;;;;;;;;;5115806;28;20020;-73
2023/05/30 01:35:49;;;;;;;15.57;4.50;;;;;;;;;;5116072;28;20012;-72
2023/05/30 01:38:15;;;;;;;9.43;3.25;;;;;;;;;;5097825;28;20479;-74
2023/05/30 01:40:44;;;;;;;7.72;2.95;;;;;;;;;;5098045;28;20023;-74
2023/05/30 01:43:10;;;;;;;7.63;2.78;;;;;;;;;;5097830;28;20104;-75
2023/05/30 01:45:46;;;;;;;7.28;3.50;;;;;;;;;;5115668;28;20015;-74
2023/05/30 01:48:27;;;;;;;10.43;2.70;;;;;;;;;;5115909;28;20020;-73
2023/05/30 01:50:55;;;;;;;8.82;2.95;;;;;;;;;;5115360;28;20012;-73
2023/05/30 01:53:31;;;;;;;10.68;3.10;;;;;;;;;;5115326;28;20464;-75
2023/05/30 01:56:06;;;;;;;8.85;3.05;;;;;;;;;;5097332;28;20020;-74
2023/05/30 01:58:32;;;;;;;8.15;3.45;;;;;;;;;;5114941;28;20016;-75
2023/05/30 02:00:59;;;;;;;7.55;3.00;;;;;;;;;;5114749;28;20092;-73
2023/05/30 02:03:35;;;;;;;9.23;3.08;;;;;;;;;;5096609;28;20540;-73
2023/05/30 02:06:01;;;;;;;7.25;2.72;;;;;;;;;;5115110;28;20015;-74
2023/05/30 02:08:27;;;;;;;8.02;2.75;;;;;;;;;;5115062;28;20070;-73
2023/05/30 02:10:52;;;;;;;4.88;3.42;;;;;;;;;;5114952;28;20372;-72
2023/05/30 02:13:18;;;;;;;8.83;3.17;;;;;;;;;;5115358;28;20029;-72
2023/05/30 02:15:43;;;;;;;8.48;3.45;;;;;;;;;;5115267;28;20691;-73
2023/05/30 02:18:09;;;;;;;5.55;2.53;;;;;;;;;;5113186;28;20143;-73
2023/05/30 02:20:34;;;;;;;7.22;2.85;;;;;;;;;;5115349;28;20390;-74
2023/05/30 02:23:00;;;;;;;6.35;2.88;;;;;;;;;;5115010;28;20016;-73
2023/05/30 02:25:26;;;;;;;8.87;3.20;;;;;;;;;;5114748;28;20416;-73
2023/05/30 02:27:51;;;;;;;5.93;2.70;;;;;;;;;;5114632;28;20254;-73
2023/05/30 02:30:17;;;;;;;9.57;3.10;;;;;;;;;;5114917;28;20019;-73
2023/05/30 02:32:42;;;;;;;6.60;3.00;;;;;;;;;;5114953;28;20020;-73
2023/05/30 02:35:08;;;;;;;6.60;2.58;;;;;;;;;;5096398;28;20019;-73
2023/05/30 02:37:33;;;;;;;7.00;2.78;;;;;;;;;;5114680;28;20099;-73
2023/05/30 02:39:58;;;;;;;10.27;3.00;;;;;;;;;;5115194;28;20016;-72
2023/05/30 02:42:24;;;;;;;7.00;3.17;;;;;;;;;;5114525;28;20030;-73
2023/05/30 02:44:49;;;;;;;14.23;3.00;;;;;;;;;;5114253;28;20281;-73
2023/05/30 02:47:14;;;;;;;6.80;2.95;;;;;;;;;;5114441;28;20022;-72
2023/05/30 02:49:40;;;;;;;8.05;2.95;;;;;;;;;;5114671;28;20019;-73
2023/05/30 02:52:06;;;;;;;7.57;3.70;;;;;;;;;;5114632;28;20015;-75
2023/05/30 02:54:31;;;;;;;9.55;3.60;;;;;;;;;;5114544;28;20625;-74
2023/05/30 02:56:56;;;;;;;12.63;3.17;;;;;;;;;;5096033;28;20460;-74
2023/05/30 02:59:22;;;;;;;8.93;3.10;;;;;;;;;;5114282;28;20517;-71
2023/05/30 03:01:47;;;;;;;7.75;3.20;;;;;;;;;;5114307;28;20012;-73
2023/05/30 03:04:13;;;;;;;6.30;3.13;;;;;;;;;;5114008;28;20023;-73
2023/05/30 03:06:40;;;;;;;14.23;3.20;;;;;;;;;;5114172;28;20047;-73
2023/05/30 03:09:05;;;;;;;6.78;3.00;;;;;;;;;;5114471;28;20026;-73
2023/05/30 03:11:30;;;;;;;9.85;3.05;;;;;;;;;;5113880;28;20027;-73
2023/05/30 03:13:56;;;;;;;11.97;2.90;;;;;;;;;;5113924;28;20027;-73
2023/05/30 03:16:21;;;;;;;10.25;2.75;;;;;;;;;;5114186;28;20277;-73
2023/05/30 03:18:49;;;;;;;7.50;2.97;;;;;;;;;;5114515;28;20028;-73
2023/05/30 03:21:14;;;;;;;11.43;3.25;;;;;;;;;;5095652;28;20023;-73
2023/05/30 03:23:40;;;;;;;6.15;2.83;;;;;;;;;;5095259;28;20020;-71
2023/05/30 03:26:06;;;;;;;6.72;2.80;;;;;;;;;;5113589;28;20022;-73
2023/05/30 03:28:32;;;;;;;8.85;3.00;;;;;;;;;;5113595;28;20023;-73
2023/05/30 03:30:57;;;;;;;10.07;3.70;;;;;;;;;;5114288;28;20011;-74
2023/05/30 03:33:22;;;;;;;8.55;2.42;;;;;;;;;;5113541;28;20460;-74
2023/05/30 03:35:48;;;;;;;6.95;3.03;;;;;;;;;;5113508;28;20066;-73
2023/05/30 03:38:13;;;;;;;13.05;3.58;;;;;;;;;;5113546;28;20024;-73
2023/05/30 03:40:38;;;;;;;23.45;5.43;;;;;;;;;;5113476;28;20027;-73
2023/05/30 03:43:04;;;;;;;10.73;3.10;;;;;;;;;;5113903;28;20110;-72
2023/05/30 03:45:29;;;;;;;11.40;3.23;;;;;;;;;;5113475;28;20262;-73
2023/05/30 03:47:54;;;;;;;9.18;3.00;;;;;;;;;;5113419;28;20253;-73
2023/05/30 03:50:19;;;;;;;12.85;3.33;;;;;;;;;;5113718;28;20016;-74
2023/05/30 03:52:45;;;;;;;8.48;2.80;;;;;;;;;;5113422;28;20012;-73
2023/05/30 03:55:10;;;;;;;5.17;2.93;;;;;;;;;;5113396;28;20100;-73
2023/05/30 03:57:36;;;;;;;9.65;3.08;;;;;;;;;;5113685;28;20618;-71
2023/05/30 04:00:02;;;;;;;16.08;3.67;;;;;;;;;;5113335;28;20043;-74
2023/05/30 04:02:27;;;;;;;9.40;3.30;;;;;;;;;;5113060;28;20050;-74
2023/05/30 04:04:55;;;;;;;7.85;3.20;;;;;;;;;;5111056;28;20028;-73
2023/05/30 04:07:31;;;;;;;11.05;4.00;;;;;;;;;;5113712;28;20023;-73
2023/05/30 04:09:58;;;;;;;10.18;3.58;;;;;;;;;;5113835;28;20012;-73
2023/05/30 04:12:25;;;;;;;13.38;3.10;;;;;;;;;;5113085;28;20521;-74
2023/05/30 04:14:52;;;;;;;9.35;2.47;;;;;;;;;;5113630;28;20365;-73
2023/05/30 04:17:18;;;;;;;14.75;3.10;;;;;;;;;;5112971;28;20027;-74
2023/05/30 04:19:44;;;;;;;9.52;3.47;;;;;;;;;;5113413;28;20031;-73
2023/05/30 04:22:10;;;;;;;9.98;3.22;;;;;;;;;;5113265;28;20023;-74
2023/05/30 04:24:36;;;;;;;10.40;3.33;;;;;;;;;;5109034;28;20380;-72
2023/05/30 04:27:02;;;;;;;13.73;3.05;;;;;;;;;;5100339;28;20472;-72
2023/05/30 04:29:27;;;;;;;11.15;3.33;;;;;;;;;;5092881;28;20025;-73
2023/05/30 04:31:52;;;;;;;9.65;3.33;;;;;;;;;;5082191;28;20044;-71
2023/05/30 04:34:22;;;;;;;11.43;3.15;;;;;;;;;;5100329;28;20062;-71
2023/05/30 04:36:47;;;;;;;11.52;3.58;;;;;;;;;;5092489;28;20026;-71
2023/05/30 04:39:12;;;;;;;7.75;3.00;;;;;;;;;;5093027;28;20494;-72
2023/05/30 04:41:40;;;;;;;15.90;3.60;;;;;;;;;;5076122;28;20044;-71
2023/05/30 04:44:07;;;;;;;8.25;3.42;;;;;;;;;;5096610;28;20024;-73
2023/05/30 04:46:33;;;;;;;8.70;3.47;;;;;;;;;;5095827;28;20024;-69
2023/05/30 04:49:00;;;;;;;9.27;3.20;;;;;;;;;;5096705;28;20024;-68
2023/05/30 04:51:27;;;;;;;10.48;3.35;;;;;;;;;;5078210;28;20487;-70
2023/05/30 04:53:54;;;;;;;8.63;3.45;;;;;;;;;;5078382;28;20050;-70
2023/05/30 04:56:21;;;;;;;10.68;2.90;;;;;;;;;;5078247;28;20491;-68
2023/05/30 04:58:56;;;;;;;10.98;4.13;;;;;;;;;;5095048;28;20111;-70
2023/05/30 05:01:23;;;;;;;12.52;3.42;;;;;;;;;;5077849;28;20479;-70
2023/05/30 05:04:10;;;;;;;11.82;3.20;;;;;;;;;;5094861;28;20031;-71
2023/05/30 05:06:37;;;;;;;10.15;3.20;;;;;;;;;;5095952;28;20024;-70
2023/05/30 05:09:03;;;;;;;13.82;3.85;;;;;;;;;;5103139;28;20448;-72
2023/05/30 05:11:28;;;;;;;12.90;3.22;;;;;;;;;;5097442;28;20123;-70
2023/05/30 05:13:54;;;;;;;14.77;3.92;;;;;;;;;;5115914;28;20131;-71
2023/05/30 05:16:20;;;;;;;11.38;3.72;;;;;;;;;;5110615;28;20449;-69
2023/05/30 05:18:45;;;;;;;11.63;3.23;;;;;;;;;;5095723;28;20473;-71
2023/05/30 05:21:31;;;;;;;10.30;4.00;;;;;;;;;;5110691;27;20326;-71
2023/05/30 05:23:56;;;;;;;13.88;4.15;;;;;;;;;;5110366;28;20027;-71
2023/05/30 05:26:22;;;;;;;19.15;3.90;;;;;;;;;;5114255;28;20408;-72
2023/05/30 05:28:47;;;;;;;10.57;3.50;;;;;;;;;;5114299;28;20099;-71
2023/05/30 05:31:12;;;;;;;13.48;3.35;;;;;;;;;;5115799;28;20025;-71
2023/05/30 05:33:38;;;;;;;9.60;4.15;;;;;;;;;;5114999;28;20080;-70
2023/05/30 05:36:03;;;;;;;15.30;3.63;;;;;;;;;;5115517;28;20045;-71
2023/05/30 05:38:29;;;;;;;13.32;3.50;;;;;;;;;;5115990;28;20031;-71
2023/05/30 05:40:54;;;;;;;7.38;3.30;;;;;;;;;;5113513;28;20043;-71
2023/05/30 05:43:19;;;;;;;10.50;3.17;;;;;;;;;;5113276;28;20030;-73
2023/05/30 05:45:45;;;;;;;10.77;3.78;;;;;;;;;;5113172;28;20038;-71
2023/05/30 05:48:10;;;;;;;9.10;3.47;;;;;;;;;;5113193;28;20029;-70
2023/05/30 05:50:35;;;;;;;13.30;4.00;;;;;;;;;;5112925;28;20039;-70
2023/05/30 05:53:00;;;;;;;13.43;3.63;;;;;;;;;;5111556;28;20284;-71
2023/05/30 05:55:26;;;;;;;12.67;3.57;;;;;;;;;;5113094;28;20258;-71
2023/05/30 05:57:52;;;;;;;14.47;4.07;;;;;;;;;;5113256;28;20300;-71
2023/05/30 06:00:17;;;;;;;12.27;3.92;;;;;;;;;;5112896;28;20762;-71
2023/05/30 06:02:42;;;;;;;21.45;3.75;;;;;;;;;;5113345;28;20026;-70
2023/05/30 06:05:08;;;;;;;15.77;3.90;;;;;;;;;;5095043;28;20046;-70
2023/05/30 06:07:34;;;;;;;9.52;3.08;;;;;;;;;;5115203;28;20310;-70
2023/05/30 06:09:59;;;;;;;10.88;3.28;;;;;;;;;;5115263;28;20106;-71
2023/05/30 06:12:24;;;;;;;9.30;2.80;;;;;;;;;;5115286;28;20043;-71
2023/05/30 06:14:50;;;;;;;9.38;2.78;;;;;;;;;;5114905;28;20016;-71
2023/05/30 06:17:15;;;;;;;8.57;2.90;;;;;;;;;;5115214;28;20483;-71
2023/05/30 06:19:40;;;;;;;8.88;2.70;;;;;;;;;;5115006;28;20452;-72
2023/05/30 06:22:07;;;;;;;7.97;2.90;;;;;;;;;;5115456;28;20098;-70
2023/05/30 06:24:32;;;;;;;10.75;2.83;;;;;;;;;;5115125;28;20431;-71
2023/05/30 06:26:58;;;;;;;14.63;3.03;;;;;;;;;;5114919;28;20495;-70
2023/05/30 06:29:23;;;;;;;9.67;2.97;;;;;;;;;;5114667;28;20016;-70
2023/05/30 06:31:48;;;;;;;10.52;2.97;;;;;;;;;;5114612;28;20354;-72
2023/05/30 06:34:14;;;;;;;7.50;2.80;;;;;;;;;;5114567;28;20023;-71
2023/05/30 06:36:39;;;;;;;11.57;3.23;;;;;;;;;;5096280;28;20023;-71
2023/05/30 06:39:04;;;;;;;8.23;2.63;;;;;;;;;;5114494;28;20020;-70
2023/05/30 06:41:29;;;;;;;10.27;3.90;;;;;;;;;;5114491;28;20289;-71
2023/05/30 06:43:55;;;;;;;8.40;3.13;;;;;;;;;;5114464;28;20316;-70
2023/05/30 06:46:20;;;;;;;14.63;2.87;;;;;;;;;;5114282;28;20345;-72
2023/05/30 06:48:46;;;;;;;11.07;2.53;;;;;;;;;;5114523;28;20019;-72
2023/05/30 06:51:12;;;;;;;10.02;2.45;;;;;;;;;;5114396;28;20015;-72
2023/05/30 06:53:37;;;;;;;8.35;2.83;;;;;;;;;;5114308;28;20015;-70
2023/05/30 06:56:02;;;;;;;8.97;2.43;;;;;;;;;;5114284;28;20030;-70
2023/05/30 06:58:27;;;;;;;8.13;2.63;;;;;;;;;;5114424;28;20068;-71
2023/05/30 07:00:53;;;;;;;12.00;2.57;;;;;;;;;;5114068;28;20481;-71
2023/05/30 07:03:18;;;;;;;8.70;2.87;;;;;;;;;;5113849;28;20028;-71
2023/05/30 07:05:43;;;;;;;13.70;3.17;;;;;;;;;;5113779;28;20380;-71
2023/05/30 07:08:09;;;;;;;10.80;2.88;;;;;;;;;;5113901;28;20046;-71
2023/05/30 07:10:34;;;;;;;15.82;3.47;;;;;;;;;;5114134;28;20016;-70
2023/05/30 07:13:00;;;;;;;11.23;2.42;;;;;;;;;;5114065;28;20015;-72
2023/05/30 07:15:25;;;;;;;9.07;2.20;;;;;;;;;;5114015;28;20427;-70
2023/05/30 07:17:51;;;;;;;8.65;2.10;;;;;;;;;;5113929;28;20015;-70
2023/05/30 07:20:22;;;;;;;5.82;2.08;;;;;;;;;;5113610;28;20027;-70
2023/05/30 07:22:47;;;;;;;10.07;2.38;;;;;;;;;;5113648;28;20027;-72
2023/05/30 07:25:12;;;;;;;6.07;2.10;;;;;;;;;;5113599;28;20028;-71
2023/05/30 07:27:38;;;;;;;10.63;2.77;;;;;;;;;;5113320;28;20323;-71
2023/05/30 07:30:03;;;;;;;11.13;2.57;;;;;;;;;;5113398;28;20277;-71
2023/05/30 07:32:29;;;;;;;18.73;3.25;;;;;;;;;;5113238;28;20080;-72
2023/05/30 07:34:55;;;;;;;10.75;2.13;;;;;;;;;;5113412;28;20019;-71
2023/05/30 07:37:20;;;;;;;7.30;2.22;;;;;;;;;;5111686;28;20016;-71
2023/05/30 07:39:45;;;;;;;16.37;2.93;;;;;;;;;;5113475;28;20364;-70
2023/05/30 07:42:11;;;;;;;14.90;2.90;;;;;;;;;;5113758;28;20096;-72
2023/05/30 07:44:36;;;;;;;9.67;2.40;;;;;;;;;;5113199;28;20426;-71
2023/05/30 07:47:02;;;;;;;10.73;2.33;;;;;;;;;;5113362;28;20019;-72
2023/05/30 07:49:28;;;;;;;8.43;2.08;;;;;;;;;;5113108;28;20475;-70
2023/05/30 07:51:53;;;;;;;6.70;2.00;;;;;;;;;;5094943;28;20107;-71
2023/05/30 07:54:18;;;;;;;4.37;1.73;;;;;;;;;;5113417;28;20096;-70
2023/05/30 07:56:43;;;;;;;7.60;1.93;;;;;;;;;;5113522;28;20054;-71
2023/05/30 07:59:09;;;;;;;7.40;2.20;;;;;;;;;;5112939;28;20059;-71
2023/05/30 08:01:34;;;;;;;6.93;1.83;;;;;;;;;;5113025;28;20023;-70
2023/05/30 08:04:00;;;;;;;6.40;2.00;;;;;;;;;;5113352;28;20022;-69
2023/05/30 08:06:25;;;;;;;7.37;2.00;;;;;;;;;;5113273;28;20047;-70
2023/05/30 08:08:51;;;;;;;8.18;2.20;;;;;;;;;;5113336;28;20273;-69
2023/05/30 08:11:17;;;;;;;7.97;2.10;;;;;;;;;;5112952;28;20035;-70
2023/05/30 08:13:47;;;;;;;5.35;1.90;;;;;;;;;;5112848;28;20441;-69
2023/05/30 08:16:13;;;;;;;7.70;1.80;;;;;;;;;;5114832;28;20043;-69
2023/05/30 08:18:38;;;;;;;6.55;2.10;;;;;;;;;;5117505;28;20012;-69
2023/05/30 08:21:03;;;;;;;7.27;2.30;;;;;;;;;;5117146;28;20068;-69
2023/05/30 08:23:28;;;;;;;7.93;2.40;;;;;;;;;;5117087;28;20035;-69
2023/05/30 08:25:55;;;;;;;9.17;1.93;;;;;;;;;;5117050;28;20262;-68
2023/05/30 08:28:21;;;;;;;5.88;2.08;;;;;;;;;;5117371;28;20015;-69
2023/05/30 08:30:50;;;;;;;7.07;1.75;;;;;;;;;;5117287;28;20027;-69
2023/05/30 08:33:19;;;;;;;9.98;2.50;;;;;;;;;;5098595;28;20023;-69
2023/05/30 08:35:44;;;;;;;6.15;1.90;;;;;;;;;;5116915;28;20023;-69
2023/05/30 08:38:10;;;;;;;3.05;1.30;;;;;;;;;;5116817;28;20019;-69
2023/05/30 08:40:40;;;;;;;5.85;1.90;;;;;;;;;;5116796;28;20016;-69
2023/05/30 08:43:05;;;;;;;5.95;2.28;;;;;;;;;;5116748;28;20453;-69
2023/05/30 08:45:31;;;;;;;8.63;1.83;;;;;;;;;;5116749;28;20049;-72
2023/05/30 08:47:57;;;;;;;10.65;2.58;;;;;;;;;;5116729;28;20058;-71
2023/05/30 08:50:24;;;;;;;6.95;2.45;;;;;;;;;;5116958;28;20027;-71
2023/05/30 08:52:53;;;;;;;12.43;2.55;;;;;;;;;;5116921;28;20031;-70
2023/05/30 08:55:27;;;;;;;3.75;1.63;;;;;;;;;;5116333;28;20024;-71
2023/05/30 08:58:21;;;;;;;9.80;2.40;;;;;;;;;;5117443;28;20090;-70
2023/05/30 09:00:51;;;;;;;11.80;2.50;;;;;;;;;;5116526;28;20455;-69
2023/05/30 09:03:16;;;;;;;7.93;1.50;;;;;;;;;;5116566;28;20442;-70
2023/05/30 09:05:42;;;;;;;7.38;2.15;;;;;;;;;;5116910;28;20459;-70
2023/05/30 09:08:08;;;;;;;4.30;1.90;;;;;;;;;;5116398;28;20072;-71
2023/05/30 09:10:35;;;;;;;7.22;1.90;;;;;;;;;;5116352;28;20016;-72
2023/05/30 09:13:00;;;;;;;7.57;1.70;;;;;;;;;;5116330;28;20068;-71
2023/05/30 09:15:26;;;;;;;7.20;2.03;;;;;;;;;;5116393;28;20023;-70
2023/05/30 09:17:51;;;;;;;6.95;1.95;;;;;;;;;;5116458;28;20287;-71
2023/05/30 09:20:17;;;;;;;6.27;1.73;;;;;;;;;;5116050;28;20061;-71
2023/05/30 09:22:43;;;;;;;8.43;1.90;;;;;;;;;;5116322;28;20382;-71
2023/05/30 09:25:09;;;;;;;5.78;1.80;;;;;;;;;;5115751;28;20028;-72
2023/05/30 09:27:35;;;;;;;8.63;2.17;;;;;;;;;;5115844;27;20034;-71
2023/05/30 09:30:10;;;;;;;8.73;2.42;;;;;;;;;;5115887;28;20357;-71
2023/05/30 09:32:36;;;;;;;4.45;1.80;;;;;;;;;;5115770;28;20023;-71
2023/05/30 09:35:09;;;;;;;3.90;1.90;;;;;;;;;;5115966;28;20465;-72
2023/05/30 09:37:42;;;;;;;3.45;1.75;;;;;;;;;;5097524;28;20368;-72
2023/05/30 09:40:12;;;;;;;6.40;2.10;;;;;;;;;;5115924;28;20053;-70
2023/05/30 09:42:38;;;;;;;4.38;1.73;;;;;;;;;;5116077;28;20043;-72
2023/05/30 09:45:08;;;;;;;9.20;2.97;;;;;;;;;;5115698;28;20050;-70
2023/05/30 09:47:42;;;;;;;8.95;2.30;;;;;;;;;;5115744;28;20106;-70
2023/05/30 09:50:08;;;;;;;11.45;2.60;;;;;;;;;;5115750;28;20531;-74
2023/05/30 09:52:34;;;;;;;7.13;1.83;;;;;;;;;;5115696;28;20413;-72
2023/05/30 09:55:00;;;;;;;4.72;1.63;;;;;;;;;;5115356;28;20028;-70
2023/05/30 09:57:27;;;;;;;4.95;1.63;;;;;;;;;;5115440;28;20478;-71
2023/05/30 09:59:52;;;;;;;5.38;1.52;;;;;;;;;;5115508;28;20047;-72
2023/05/30 10:02:22;;;;;;;7.85;1.70;;;;;;;;;;5115521;28;20023;-70
2023/05/30 10:04:50;;;;;;;9.68;2.45;;;;;;;;;;5115463;28;20145;-70
2023/05/30 10:07:16;;;;;;;4.68;1.38;;;;;;;;;;5115442;28;20027;-70
2023/05/30 10:09:42;;;;;;;3.78;1.35;;;;;;;;;;5115222;28;20035;-70
2023/05/30 10:12:07;;;;;;;5.50;1.58;;;;;;;;;;5115356;28;20047;-71
2023/05/30 10:14:34;;;;;;;5.25;1.77;;;;;;;;;;5115364;28;20452;-71
2023/05/30 10:17:00;;;;;;;5.35;1.90;;;;;;;;;;5115484;28;20027;-70
2023/05/30 10:19:37;;;;;;;6.43;1.85;;;;;;;;;;5115028;28;20024;-72
2023/05/30 10:22:05;;;;;;;4.60;1.60;;;;;;;;;;5115162;28;20444;-68
2023/05/30 10:24:30;;;;;;;5.47;2.08;;;;;;;;;;5115027;28;20027;-69
2023/05/30 10:26:59;;;;;;;9.38;2.10;;;;;;;;;;5114912;28;20028;-69
2023/05/30 10:29:28;;;;;;;5.65;1.98;;;;;;;;;;5115167;28;20043;-69
2023/05/30 10:31:54;;;;;;;7.97;2.13;;;;;;;;;;5114859;28;20457;-70
2023/05/30 10:34:21;;;;;;;14.38;2.38;;;;;;;;;;5114679;28;20028;-70
2023/05/30 10:36:47;;;;;;;8.38;2.25;;;;;;;;;;5114687;28;20098;-72
2023/05/30 10:39:28;;;;;;;7.70;2.20;;;;;;;;;;5113661;28;20030;-70
2023/05/30 10:42:05;;;;;;;7.03;1.80;;;;;;;;;;5114661;28;20472;-70
2023/05/30 10:44:31;;;;;;;5.05;1.50;;;;;;;;;;5114295;28;20283;-69
2023/05/30 10:47:06;;;;;;;15.97;2.23;;;;;;;;;;5114314;28;20107;-70
2023/05/30 10:49:31;;;;;;;6.18;1.63;;;;;;;;;;5096028;28;20110;-70
2023/05/30 10:52:09;;;;;;;4.93;1.60;;;;;;;;;;5114117;28;20062;-70
2023/05/30 10:54:35;;;;;;;6.03;1.70;;;;;;;;;;5114259;28;20051;-70
2023/05/30 10:57:20;;;;;;;6.22;2.28;;;;;;;;;;5114161;28;20468;-69
2023/05/30 10:59:46;;;;;;;8.48;1.98;;;;;;;;;;5114095;28;20062;-70
2023/05/30 11:02:17;;;;;;;9.70;1.92;;;;;;;;;;5113847;28;20464;-71
2023/05/30 11:04:42;;;;;;;6.68;1.50;;;;;;;;;;5113927;28;20020;-71
2023/05/30 11:07:09;;;;;;;8.20;2.17;;;;;;;;;;5113953;28;20085;-71
2023/05/30 11:09:41;;;;;;;7.85;1.77;;;;;;;;;;5113968;28;20092;-69
2023/05/30 11:12:06;;;;;;;3.50;1.65;;;;;;;;;;5114011;28;20023;-70
2023/05/30 11:14:33;;;;;;;7.40;1.95;;;;;;;;;;5095627;28;20377;-70
2023/05/30 11:17:05;;;;;;;8.70;2.10;;;;;;;;;;5113998;28;20104;-69
2023/05/30 11:19:42;;;;;;;5.28;1.88;;;;;;;;;;5113998;28;20024;-70
2023/05/30 11:22:17;;;;;;;7.85;2.38;;;;;;;;;;5113579;28;20100;-71
2023/05/30 11:24:43;;;;;;;6.88;2.03;;;;;;;;;;5113988;28;20019;-70
2023/05/30 11:27:10;;;;;;;8.32;2.22;;;;;;;;;;5095406;28;20384;-70
2023/05/30 11:29:37;;;;;;;8.55;2.25;;;;;;;;;;5113945;28;20027;-70
2023/05/30 11:32:06;;;;;;;6.72;2.22;;;;;;;;;;5113886;28;20094;-71
2023/05/30 11:34:31;;;;;;;10.50;1.90;;;;;;;;;;5113771;28;20114;-70
2023/05/30 11:36:57;;;;;;;5.18;2.40;;;;;;;;;;5113566;28;20449;-71
2023/05/30 11:39:22;;;;;;;6.05;1.75;;;;;;;;;;5113725;28;20016;-70
2023/05/30 11:41:48;;;;;;;7.38;1.70;;;;;;;;;;5095095;28;20065;-71
2023/05/30 11:44:13;;;;;;;5.63;1.92;;;;;;;;;;5095407;28;20024;-70
2023/05/30 11:46:39;;;;;;;6.35;2.28;;;;;;;;;;5113902;28;20099;-71
2023/05/30 11:49:04;;;;;;;5.30;2.10;;;;;;;;;;5113473;28;20024;-72
2023/05/30 11:51:30;;;;;;;7.50;1.75;;;;;;;;;;5113575;28;20024;-72
2023/05/30 11:53:56;;;;;;;32.83;4.53;;;;;;;;;;5095024;28;20453;-71
2023/05/30 11:56:21;;;;;;;4.63;2.00;;;;;;;;;;5113330;28;20023;-69
2023/05/30 11:58:49;;;;;;;9.88;2.47;;;;;;;;;;5094910;28;20015;-72
2023/05/30 12:01:15;;;;;;;4.97;1.80;;;;;;;;;;5113397;28;20016;-69
2023/05/30 12:03:43;;;;;;;18.30;4.80;;;;;;;;;;5113605;28;20030;-70
2023/05/30 12:06:12;;;;;;;6.05;2.03;;;;;;;;;;5113502;28;20020;-70
2023/05/30 12:08:45;;;;;;;3.95;1.90;;;;;;;;;;5113378;28;20015;-69
2023/05/30 12:11:11;;;;;;;6.25;1.58;;;;;;;;;;5112977;28;20026;-71
2023/05/30 12:13:37;;;;;;;9.35;1.83;;;;;;;;;;5112961;28;20023;-69
2023/05/30 12:16:02;;;;;;;9.73;2.10;;;;;;;;;;5113171;28;20020;-70
2023/05/30 12:18:27;;;;;;;6.18;1.85;;;;;;;;;;5094781;28;20019;-69
2023/05/30 12:20:52;;;;;;;7.50;1.90;;;;;;;;;;5094865;28;20015;-71
2023/05/30 12:23:24;;;;;;;9.00;1.87;;;;;;;;;;5113013;28;20012;-72
2023/05/30 12:25:51;;;;;;;7.25;1.92;;;;;;;;;;5112981;28;20289;-70
2023/05/30 12:28:16;;;;;;;11.10;2.63;;;;;;;;;;5113144;28;20413;-72
2023/05/30 12:30:42;;;;;;;7.55;2.20;;;;;;;;;;5113053;28;20022;-72
2023/05/30 12:33:17;;;;;;;11.68;3.10;;;;;;;;;;5112983;28;20099;-72
2023/05/30 12:35:43;;;;;;;6.38;2.13;;;;;;;;;;5113114;28;20406;-77
2023/05/30 12:38:11;;;;;;;4.32;2.03;;;;;;;;;;5093714;28;20472;-76
2023/05/30 12:40:41;;;;;;;3.10;2.05;;;;;;;;;;5111236;28;20022;-76
2023/05/30 12:43:06;;;;;;;10.00;2.30;;;;;;;;;;5111478;28;20036;-77
2023/05/30 12:45:33;;;;;;;12.07;2.67;;;;;;;;;;5111231;28;20093;-77
2023/05/30 12:47:58;;;;;;;7.30;2.17;;;;;;;;;;5111390;28;20280;-75
2023/05/30 12:50:23;;;;;;;7.05;2.13;;;;;;;;;;5110995;28;20055;-77
2023/05/30 12:52:49;;;;;;;8.20;2.00;;;;;;;;;;5111084;28;20049;-76
2023/05/30 12:55:14;;;;;;;6.38;2.00;;;;;;;;;;5112286;28;20622;-74
2023/05/30 12:57:40;;;;;;;8.63;2.07;;;;;;;;;;5111153;28;20024;-76
2023/05/30 13:00:06;;;;;;;11.00;2.15;;;;;;;;;;5110528;28;20634;-74
2023/05/30 13:02:32;;;;;;;7.13;2.92;;;;;;;;;;5112878;28;20388;-76
2023/05/30 13:04:57;;;;;;;9.07;2.22;;;;;;;;;;5114420;28;20559;-77
2023/05/30 13:07:22;;;;;;;6.65;1.80;;;;;;;;;;5114545;28;20016;-79
2023/05/30 13:09:48;;;;;;;4.90;1.60;;;;;;;;;;5114869;28;20016;-75
2023/05/30 13:12:14;;;;;;;7.25;2.58;;;;;;;;;;5116718;28;20020;-77
2023/05/30 13:14:43;;;;;;;5.80;2.78;;;;;;;;;;5116281;28;20395;-77
2023/05/30 13:17:08;;;;;;;5.30;1.90;;;;;;;;;;5116505;28;20019;-78
2023/05/30 13:19:34;;;;;;;5.55;1.77;;;;;;;;;;5116819;28;20042;-77
2023/05/30 13:22:01;;;;;;;4.85;1.70;;;;;;;;;;5116349;28;20016;-77
2023/05/30 13:24:27;;;;;;;8.52;2.00;;;;;;;;;;5116329;28;20027;-75
2023/05/30 13:26:52;;;;;;;5.25;2.00;;;;;;;;;;5116556;28;20027;-78
2023/05/30 13:29:17;;;;;;;7.77;2.30;;;;;;;;;;5116210;28;20015;-78
2023/05/30 13:31:43;;;;;;;5.97;2.10;;;;;;;;;;5116402;28;20296;-78
2023/05/30 13:34:08;;;;;;;13.73;2.00;;;;;;;;;;5116055;28;20777;-78
2023/05/30 13:36:33;;;;;;;7.70;2.03;;;;;;;;;;5115758;28;20127;-75
2023/05/30 13:38:58;;;;;;;7.27;2.00;;;;;;;;;;5115801;28;20290;-78
2023/05/30 13:41:24;;;;;;;4.60;1.83;;;;;;;;;;5115750;28;20732;-76
2023/05/30 13:43:49;;;;;;;5.22;1.77;;;;;;;;;;5115725;28;20261;-75
2023/05/30 13:46:15;;;;;;;7.85;2.65;;;;;;;;;;5116179;28;20098;-72
2023/05/30 13:48:40;;;;;;;8.68;2.30;;;;;;;;;;5115704;28;20353;-72
2023/05/30 13:51:06;;;;;;;6.43;2.10;;;;;;;;;;5097350;28;20016;-74
2023/05/30 13:53:31;;;;;;;4.80;2.00;;;;;;;;;;5114918;28;20206;-75
2023/05/30 13:55:57;;;;;;;5.65;1.80;;;;;;;;;;5115757;28;20074;-71
2023/05/30 13:58:22;;;;;;;7.50;2.10;;;;;;;;;;5115277;28;20012;-73
2023/05/30 14:00:48;;;;;;;11.60;2.22;;;;;;;;;;5115414;28;20109;-73
2023/05/30 14:03:13;;;;;;;6.75;1.73;;;;;;;;;;5096998;28;20016;-70
2023/05/30 14:05:38;;;;;;;6.20;1.90;;;;;;;;;;5115503;28;20031;-71
2023/05/30 14:08:04;;;;;;;4.13;1.88;;;;;;;;;;5115344;28;20346;-72
2023/05/30 14:10:29;;;;;;;7.93;1.90;;;;;;;;;;5115183;28;20016;-73
2023/05/30 14:12:55;;;;;;;10.77;2.10;;;;;;;;;;5115042;28;20016;-72
2023/05/30 14:15:21;;;;;;;11.30;2.00;;;;;;;;;;5114518;28;20059;-72
2023/05/30 14:17:47;;;;;;;6.53;2.38;;;;;;;;;;5115429;28;20015;-70
2023/05/30 14:20:12;;;;;;;6.18;2.05;;;;;;;;;;5096545;28;20345;-71
2023/05/30 14:22:38;;;;;;;10.10;2.25;;;;;;;;;;5114948;28;20011;-71
2023/05/30 14:25:04;;;;;;;2.80;1.73;;;;;;;;;;5115035;28;20047;-71
2023/05/30 14:27:30;;;;;;;7.30;2.75;;;;;;;;;;5096633;28;20113;-72
2023/05/30 14:29:56;;;;;;;6.00;1.73;;;;;;;;;;5114781;28;20093;-72
2023/05/30 14:32:21;;;;;;;7.30;2.03;;;;;;;;;;5114692;28;20032;-72
2023/05/30 14:34:47;;;;;;;7.07;2.22;;;;;;;;;;5114517;28;20024;-71
2023/05/30 14:37:12;;;;;;;9.63;2.63;;;;;;;;;;5114800;28;20126;-72